createdAt,value
2019-03-27T00:00:35.632Z,56.91
2019-03-27T00:03:09.070Z,56.90
2019-03-27T00:05:42.557Z,56.74
2019-03-27T00:08:16.034Z,56.75
2019-03-27T00:10:49.636Z,56.91
2019-03-27T00:13:23.222Z,57.12
2019-03-27T00:15:56.633Z,57.00
2019-03-27T00:18:30.011Z,56.88
2019-03-27T00:21:03.517Z,57.14
2019-03-27T00:23:37.042Z,57.23
2019-03-27T00:26:10.459Z,57.28
2019-03-27T00:28:43.904Z,57.01
2019-03-27T00:31:17.310Z,57.04
2019-03-27T00:33:51.655Z,56.99
2019-03-27T00:36:25.002Z,57.01
2019-03-27T00:38:58.512Z,57.13
2019-03-27T00:41:32.183Z,57.19
2019-03-27T00:44:05.622Z,57.04
2019-03-27T00:46:39.046Z,57.00
2019-03-27T00:49:12.427Z,56.97
2019-03-27T00:51:45.798Z,56.75
2019-03-27T00:54:19.246Z,56.69
2019-03-27T00:56:52.586Z,56.88
2019-03-27T00:59:26.061Z,56.97
2019-03-27T01:01:59.508Z,56.96
2019-03-27T01:04:33.010Z,56.82
2019-03-27T01:07:06.522Z,56.69
2019-03-27T01:09:39.943Z,56.58
2019-03-27T01:12:13.770Z,56.61
2019-03-27T01:14:47.293Z,56.54
2019-03-27T01:17:20.746Z,56.44
2019-03-27T01:19:54.242Z,56.33
2019-03-27T01:22:27.594Z,56.47
2019-03-27T01:25:01.091Z,56.52
2019-03-27T01:27:35.746Z,56.26
2019-03-27T01:30:09.695Z,56.21
2019-03-27T01:32:43.070Z,56.19
2019-03-27T01:35:16.438Z,56.14
2019-03-27T01:37:49.826Z,56.20
2019-03-27T01:40:23.233Z,56.24
2019-03-27T01:42:56.917Z,56.17
2019-03-27T01:45:30.362Z,56.37
2019-03-27T01:48:03.800Z,56.26
2019-03-27T01:50:37.208Z,56.07
2019-03-27T01:53:10.763Z,56.04
2019-03-27T01:55:44.180Z,56.06
2019-03-27T01:58:17.677Z,56.05
2019-03-27T02:00:51.150Z,56.12
2019-03-27T02:03:24.544Z,56.03
2019-03-27T02:05:58.055Z,56.04
2019-03-27T02:08:31.500Z,55.93
2019-03-27T02:11:04.929Z,56.06
2019-03-27T02:13:38.398Z,55.99
2019-03-27T02:16:11.907Z,55.93
2019-03-27T02:18:45.495Z,55.88
2019-03-27T02:21:18.992Z,55.87
2019-03-27T02:23:52.448Z,55.87
2019-03-27T02:26:25.883Z,55.89
2019-03-27T02:28:59.343Z,55.93
2019-03-27T02:31:32.792Z,55.97
2019-03-27T02:34:06.297Z,56.02
2019-03-27T02:36:39.799Z,56.15
2019-03-27T02:39:13.258Z,56.15
2019-03-27T02:41:46.664Z,56.20
2019-03-27T02:44:20.255Z,56.19
2019-03-27T02:46:53.617Z,56.50
2019-03-27T02:49:27.220Z,56.29
2019-03-27T02:52:00.658Z,56.70
2019-03-27T02:54:34.052Z,56.70
2019-03-27T02:57:07.582Z,56.72
2019-03-27T02:59:40.934Z,56.79
2019-03-27T03:02:14.436Z,56.71
2019-03-27T03:04:47.880Z,56.83
2019-03-27T03:07:21.338Z,56.82
2019-03-27T03:09:54.673Z,56.80
2019-03-27T03:12:28.220Z,56.75
2019-03-27T03:15:02.002Z,56.86
2019-03-27T03:17:35.539Z,56.88
2019-03-27T03:20:09.346Z,56.89
2019-03-27T03:22:42.764Z,56.88
2019-03-27T03:25:17.665Z,56.80
2019-03-27T03:27:51.059Z,56.85
2019-03-27T03:30:24.471Z,57.05
2019-03-27T03:32:57.930Z,57.05
2019-03-27T03:35:31.307Z,57.08
2019-03-27T03:38:04.791Z,57.12
2019-03-27T03:40:38.201Z,57.22
2019-03-27T03:43:11.611Z,57.42
2019-03-27T03:45:45.092Z,57.33
2019-03-27T03:48:18.660Z,57.32
2019-03-27T03:50:53.275Z,57.53
2019-03-27T03:53:27.116Z,57.79
2019-03-27T03:56:01.461Z,57.53
2019-03-27T03:58:36.372Z,57.47
2019-03-27T04:01:11.089Z,57.45
2019-03-27T04:03:45.521Z,57.32
2019-03-27T04:06:18.944Z,58.13
2019-03-27T04:08:52.403Z,57.78
2019-03-27T04:11:25.745Z,57.83
2019-03-27T04:13:59.122Z,57.69
2019-03-27T04:16:32.576Z,57.62
2019-03-27T04:19:06.088Z,57.48
2019-03-27T04:21:39.530Z,57.48
2019-03-27T04:24:13.078Z,57.61
2019-03-27T04:26:46.452Z,57.50
2019-03-27T04:29:19.987Z,57.41
2019-03-27T04:31:53.511Z,57.39
2019-03-27T04:34:26.984Z,57.43
2019-03-27T04:37:00.528Z,57.54
2019-03-27T04:39:33.922Z,57.60
2019-03-27T04:42:07.268Z,57.69
2019-03-27T04:44:40.635Z,57.55
2019-03-27T04:47:14.007Z,57.58
2019-03-27T04:49:47.454Z,57.64
2019-03-27T04:52:20.791Z,57.68
2019-03-27T04:54:54.175Z,57.80
2019-03-27T04:57:27.593Z,57.64
2019-03-27T05:00:01.127Z,57.54
2019-03-27T05:02:34.489Z,57.59
2019-03-27T05:05:08.214Z,57.56
2019-03-27T05:07:41.557Z,57.51
2019-03-27T05:10:15.012Z,57.50
2019-03-27T05:12:48.430Z,57.65
2019-03-27T05:15:21.825Z,57.75
2019-03-27T05:17:55.230Z,57.61
2019-03-27T05:20:28.922Z,57.53
2019-03-27T05:23:02.343Z,57.50
2019-03-27T05:25:35.852Z,57.50
2019-03-27T05:28:09.267Z,57.43
2019-03-27T05:30:42.776Z,57.39
2019-03-27T05:33:16.118Z,57.32
2019-03-27T05:35:49.528Z,57.25
2019-03-27T05:38:22.938Z,57.24
2019-03-27T05:40:56.406Z,57.27
2019-03-27T05:43:29.876Z,57.25
2019-03-27T05:46:03.350Z,57.28
2019-03-27T05:48:36.723Z,57.32
2019-03-27T05:51:10.272Z,57.33
2019-03-27T05:53:43.690Z,57.41
2019-03-27T05:56:17.207Z,57.65
2019-03-27T05:58:50.566Z,57.52
2019-03-27T06:01:24.037Z,57.76
2019-03-27T06:03:57.526Z,58.48
2019-03-27T06:06:31.180Z,58.48
2019-03-27T06:09:06.161Z,58.07
2019-03-27T06:11:39.572Z,58.20
2019-03-27T06:14:13.009Z,58.08
2019-03-27T06:16:46.504Z,57.97
2019-03-27T06:19:19.967Z,57.78
2019-03-27T06:21:53.433Z,57.82
2019-03-27T06:24:26.847Z,57.81
2019-03-27T06:27:00.383Z,57.62
2019-03-27T06:29:33.769Z,57.67
2019-03-27T06:32:07.232Z,57.90
2019-03-27T06:34:40.653Z,57.73
2019-03-27T06:37:14.031Z,57.57
2019-03-27T06:39:47.477Z,57.59
2019-03-27T06:42:20.949Z,57.45
2019-03-27T06:44:54.442Z,57.23
2019-03-27T06:47:27.811Z,57.10
2019-03-27T06:50:01.242Z,57.42
2019-03-27T06:52:34.804Z,57.61
2019-03-27T06:55:08.579Z,57.31
2019-03-27T06:57:42.109Z,57.09
2019-03-27T07:00:16.950Z,56.96
2019-03-27T07:02:50.334Z,56.69
2019-03-27T07:05:23.847Z,56.62
2019-03-27T07:07:57.362Z,56.64
2019-03-27T07:10:30.788Z,56.61
2019-03-27T07:13:04.326Z,56.97
2019-03-27T07:15:37.775Z,56.46
2019-03-27T07:18:11.258Z,56.51
2019-03-27T07:20:44.661Z,56.50
2019-03-27T07:23:18.144Z,55.93
2019-03-27T07:25:51.572Z,55.70
2019-03-27T07:28:25.024Z,55.29
2019-03-27T07:30:58.469Z,55.44
2019-03-27T07:33:31.922Z,55.65
2019-03-27T07:36:05.419Z,55.92
2019-03-27T07:38:38.801Z,55.79
2019-03-27T07:41:12.155Z,55.73
2019-03-27T07:43:45.619Z,55.72
2019-03-27T07:46:19.048Z,55.56
2019-03-27T07:48:54.227Z,55.58
2019-03-27T07:51:27.684Z,55.52
2019-03-27T07:54:01.125Z,54.89
2019-03-27T07:56:34.547Z,54.84
2019-03-27T07:59:08.080Z,54.49
2019-03-27T08:01:41.644Z,54.58
2019-03-27T08:04:15.637Z,54.04
2019-03-27T08:06:49.159Z,54.02
2019-03-27T08:09:23.139Z,53.98
2019-03-27T08:11:56.765Z,53.64
2019-03-27T08:14:30.251Z,53.94
2019-03-27T08:17:03.660Z,53.85
2019-03-27T08:19:37.141Z,53.27
2019-03-27T08:22:10.504Z,53.51
2019-03-27T08:24:43.981Z,53.59
2019-03-27T08:27:17.428Z,53.64
2019-03-27T08:29:50.902Z,53.49
2019-03-27T08:32:24.237Z,53.12
2019-03-27T08:34:57.631Z,52.84
2019-03-27T08:37:30.985Z,53.38
2019-03-27T08:40:07.003Z,52.67
2019-03-27T08:42:40.499Z,51.65
2019-03-27T08:45:14.427Z,52.53
2019-03-27T08:47:48.140Z,52.74
2019-03-27T08:50:21.774Z,52.98
2019-03-27T08:52:55.284Z,52.74
2019-03-27T08:55:28.661Z,52.85
2019-03-27T08:58:02.101Z,52.32
2019-03-27T09:00:46.900Z,51.64
2019-03-27T09:03:20.641Z,51.66
2019-03-27T09:05:54.086Z,51.25
2019-03-27T09:08:27.506Z,50.96
2019-03-27T09:11:04.373Z,50.57
2019-03-27T09:13:36.038Z,50.39
2019-03-27T09:16:09.588Z,49.89
2019-03-27T09:18:42.988Z,49.38
2019-03-27T09:21:16.394Z,49.64
2019-03-27T09:23:49.791Z,49.35
2019-03-27T09:26:23.170Z,48.76
2019-03-27T09:28:56.594Z,48.48
2019-03-27T09:31:43.692Z,48.67
2019-03-27T09:34:05.208Z,48.58
2019-03-27T09:36:38.667Z,48.37
2019-03-27T09:39:12.084Z,48.04
2019-03-27T09:41:45.454Z,47.71
2019-03-27T09:44:18.953Z,47.33
2019-03-27T09:46:52.549Z,47.10
2019-03-27T09:49:25.981Z,46.82
2019-03-27T09:51:59.418Z,46.28
2019-03-27T09:54:32.860Z,46.27
2019-03-27T09:57:06.266Z,46.96
2019-03-27T09:59:39.704Z,46.79
2019-03-27T10:02:13.163Z,46.97
2019-03-27T10:04:46.503Z,46.22
2019-03-27T10:07:19.879Z,44.56
2019-03-27T10:09:53.292Z,45.17
2019-03-27T10:12:26.859Z,45.75
2019-03-27T10:15:00.350Z,45.02
2019-03-27T10:17:33.945Z,45.02
2019-03-27T10:20:07.519Z,44.25
2019-03-27T10:22:40.958Z,44.82
2019-03-27T10:25:14.383Z,44.61
2019-03-27T10:27:47.895Z,44.61
2019-03-27T10:30:21.350Z,44.83
2019-03-27T10:32:54.803Z,44.80
2019-03-27T10:35:28.223Z,44.28
2019-03-27T10:38:02.117Z,44.37
2019-03-27T10:40:35.915Z,44.23
2019-03-27T10:43:09.356Z,44.09
2019-03-27T10:45:42.803Z,44.46
2019-03-27T10:48:16.242Z,44.16
2019-03-27T10:50:49.674Z,44.20
2019-03-27T10:53:23.178Z,44.29
2019-03-27T10:55:56.552Z,44.19
2019-03-27T10:58:30.177Z,43.67
2019-03-27T11:01:06.975Z,43.84
2019-03-27T11:03:38.779Z,42.77
2019-03-27T11:06:12.234Z,43.60
2019-03-27T11:08:45.787Z,43.28
2019-03-27T11:11:19.140Z,43.62
2019-03-27T11:13:52.516Z,42.68
2019-03-27T11:16:25.935Z,42.77
2019-03-27T11:18:59.315Z,42.27
2019-03-27T11:21:32.736Z,42.13
2019-03-27T11:24:06.178Z,42.49
2019-03-27T11:26:39.529Z,42.11
2019-03-27T11:29:12.892Z,41.66
2019-03-27T11:31:46.323Z,42.13
2019-03-27T11:34:19.728Z,41.12
2019-03-27T11:36:53.075Z,40.95
2019-03-27T11:39:26.537Z,40.12
2019-03-27T11:42:00.959Z,39.40
2019-03-27T11:44:34.602Z,39.99
2019-03-27T11:47:08.023Z,39.26
2019-03-27T11:49:41.499Z,38.57
2019-03-27T11:52:14.993Z,38.00
2019-03-27T11:54:48.449Z,39.30
2019-03-27T11:57:21.858Z,38.93
2019-03-27T11:59:55.223Z,39.37
2019-03-27T12:02:28.601Z,39.21
2019-03-27T12:05:02.072Z,40.69
2019-03-27T12:07:35.542Z,39.03
2019-03-27T12:10:09.322Z,38.86
2019-03-27T12:12:42.765Z,38.90
2019-03-27T12:15:19.284Z,39.02
2019-03-27T12:17:52.749Z,39.62
2019-03-27T12:20:26.173Z,37.67
2019-03-27T12:22:59.743Z,37.33
2019-03-27T12:25:33.155Z,37.37
2019-03-27T12:28:06.662Z,38.52
2019-03-27T12:30:40.081Z,38.20
2019-03-27T12:33:13.598Z,38.59
2019-03-27T12:35:47.252Z,38.73
2019-03-27T12:38:20.717Z,39.63
2019-03-27T12:40:54.211Z,39.54
2019-03-27T12:43:27.582Z,38.59
2019-03-27T12:46:00.998Z,38.24
2019-03-27T12:48:34.406Z,37.19
2019-03-27T12:51:13.194Z,37.01
2019-03-27T12:53:43.055Z,37.17
2019-03-27T12:56:16.455Z,36.50
2019-03-27T12:58:49.899Z,37.70
2019-03-27T13:01:23.283Z,38.03
2019-03-27T13:03:56.737Z,37.89
2019-03-27T13:06:30.144Z,37.81
2019-03-27T13:09:04.830Z,38.56
2019-03-27T13:11:38.597Z,38.96
2019-03-27T13:14:12.016Z,39.64
2019-03-27T13:16:45.363Z,39.13
2019-03-27T13:19:18.745Z,39.33
2019-03-27T13:21:52.078Z,39.20
2019-03-27T13:24:25.520Z,39.32
2019-03-27T13:26:58.937Z,39.66
2019-03-27T13:29:32.398Z,39.62
2019-03-27T13:32:05.812Z,40.03
2019-03-27T13:34:39.197Z,40.30
2019-03-27T13:37:12.601Z,40.29
2019-03-27T13:39:46.063Z,40.47
2019-03-27T13:42:19.419Z,40.31
2019-03-27T13:44:52.947Z,40.74
2019-03-27T13:47:26.365Z,40.59
2019-03-27T13:49:59.810Z,40.70
2019-03-27T13:52:33.332Z,40.22
2019-03-27T13:55:07.970Z,39.99
2019-03-27T13:57:41.467Z,40.50
2019-03-27T14:00:16.457Z,40.64
2019-03-27T14:02:49.799Z,40.74
2019-03-27T14:05:23.294Z,41.36
2019-03-27T14:07:56.702Z,41.09
2019-03-27T14:10:30.191Z,40.62
2019-03-27T14:13:03.603Z,41.93
2019-03-27T14:15:37.078Z,41.72
2019-03-27T14:18:10.480Z,42.15
2019-03-27T14:20:43.848Z,41.82
2019-03-27T14:23:17.338Z,41.82
2019-03-27T14:25:50.776Z,42.38
2019-03-27T14:28:24.200Z,43.05
2019-03-27T14:30:58.213Z,43.07
2019-03-27T14:33:31.631Z,43.38
2019-03-27T14:36:05.210Z,43.57
2019-03-27T14:38:38.575Z,43.90
2019-03-27T14:41:11.946Z,44.04
2019-03-27T14:43:45.294Z,44.45
2019-03-27T14:46:18.667Z,44.49
2019-03-27T14:48:52.022Z,44.32
2019-03-27T14:51:25.488Z,44.49
2019-03-27T14:53:58.904Z,44.72
2019-03-27T14:56:32.301Z,45.02
2019-03-27T14:59:05.725Z,45.32
2019-03-27T15:01:39.204Z,45.30
2019-03-27T15:04:12.732Z,45.65
2019-03-27T15:06:46.113Z,46.13
2019-03-27T15:09:19.467Z,46.10
2019-03-27T15:11:52.831Z,46.45
2019-03-27T15:14:26.252Z,46.51
2019-03-27T15:16:59.699Z,46.69
2019-03-27T15:19:33.297Z,46.22
2019-03-27T15:22:06.824Z,46.33
2019-03-27T15:24:40.175Z,46.37
2019-03-27T15:27:13.636Z,46.41
2019-03-27T15:29:47.151Z,46.47
2019-03-27T15:32:20.654Z,46.69
2019-03-27T15:34:54.016Z,47.33
2019-03-27T15:37:27.406Z,48.06
2019-03-27T15:40:00.867Z,47.79
2019-03-27T15:42:34.343Z,47.76
2019-03-27T15:45:08.958Z,48.34
2019-03-27T15:47:42.396Z,49.31
2019-03-27T15:50:15.923Z,49.41
2019-03-27T15:52:49.359Z,49.42
2019-03-27T15:55:22.807Z,49.19
2019-03-27T15:57:56.347Z,49.60
2019-03-27T16:00:29.782Z,49.48
2019-03-27T16:03:03.273Z,49.77
2019-03-27T16:05:36.725Z,50.34
2019-03-27T16:08:10.139Z,50.81
2019-03-27T16:10:43.806Z,51.45
2019-03-27T16:13:17.251Z,52.44
2019-03-27T16:15:50.697Z,52.42
2019-03-27T16:18:24.108Z,52.19
2019-03-27T16:20:57.571Z,52.07
2019-03-27T16:23:32.420Z,52.55
2019-03-27T16:26:06.013Z,52.71
2019-03-27T16:28:39.421Z,53.44
2019-03-27T16:31:13.047Z,53.44
2019-03-27T16:33:46.428Z,53.60
2019-03-27T16:36:19.958Z,54.21
2019-03-27T16:38:53.391Z,54.19
2019-03-27T16:41:26.958Z,54.21
2019-03-27T16:44:00.299Z,54.24
2019-03-27T16:46:33.749Z,54.15
2019-03-27T16:49:07.163Z,54.80
2019-03-27T16:51:40.611Z,54.67
2019-03-27T16:54:14.056Z,55.28
2019-03-27T16:56:47.501Z,55.35
2019-03-27T16:59:20.970Z,55.60
2019-03-27T17:01:54.495Z,56.23
2019-03-27T17:04:27.954Z,56.46
2019-03-27T17:07:01.346Z,56.87
2019-03-27T17:09:34.789Z,56.80
2019-03-27T17:12:08.182Z,57.30
2019-03-27T17:14:41.524Z,57.15
2019-03-27T17:17:15.052Z,57.71
2019-03-27T17:19:48.470Z,57.53
2019-03-27T17:22:21.917Z,57.77
2019-03-27T17:24:56.137Z,58.21
2019-03-27T17:27:29.811Z,58.67
2019-03-27T17:30:04.874Z,58.57
2019-03-27T17:32:38.350Z,58.29
2019-03-27T17:35:11.885Z,58.42
2019-03-27T17:37:45.435Z,58.36
2019-03-27T17:40:18.857Z,58.58
2019-03-27T17:42:52.308Z,58.92
2019-03-27T17:45:25.828Z,59.12
2019-03-27T17:47:59.438Z,59.33
2019-03-27T17:50:32.850Z,59.40
2019-03-27T17:53:06.323Z,59.21
2019-03-27T17:55:39.901Z,59.07
2019-03-27T17:58:13.400Z,59.28
2019-03-27T18:00:49.665Z,59.58
2019-03-27T18:03:23.130Z,59.86
2019-03-27T18:05:56.468Z,59.62
2019-03-27T18:08:30.284Z,59.66
2019-03-27T18:11:03.784Z,59.42
2019-03-27T18:13:37.285Z,59.48
2019-03-27T18:16:10.707Z,59.41
2019-03-27T18:18:44.142Z,59.33
2019-03-27T18:21:17.660Z,59.45
2019-03-27T18:23:51.121Z,60.10
2019-03-27T18:26:24.534Z,60.25
2019-03-27T18:28:58.031Z,59.93
2019-03-27T18:31:31.530Z,60.00
2019-03-27T18:34:05.132Z,59.99
2019-03-27T18:36:38.564Z,59.90
2019-03-27T18:39:12.011Z,60.04
2019-03-27T18:41:45.513Z,60.17
2019-03-27T18:44:18.957Z,60.31
2019-03-27T18:46:52.439Z,60.94
2019-03-27T18:49:25.884Z,61.10
2019-03-27T18:51:59.483Z,61.24
2019-03-27T18:54:32.951Z,60.97
2019-03-27T18:57:06.333Z,60.97
2019-03-27T18:59:39.852Z,61.01
2019-03-27T19:02:13.304Z,60.78
2019-03-27T19:04:46.823Z,60.59
2019-03-27T19:07:20.337Z,60.56
2019-03-27T19:09:53.762Z,60.51
2019-03-27T19:12:27.323Z,60.40
2019-03-27T19:15:00.819Z,60.42
2019-03-27T19:17:34.344Z,60.59
2019-03-27T19:20:08.036Z,60.99
2019-03-27T19:22:41.560Z,61.02
2019-03-27T19:25:14.973Z,60.91
2019-03-27T19:27:49.291Z,61.23
2019-03-27T19:30:22.812Z,61.47
2019-03-27T19:32:56.331Z,61.29
2019-03-27T19:35:29.854Z,61.50
2019-03-27T19:38:03.312Z,61.34
2019-03-27T19:40:36.807Z,61.48
2019-03-27T19:43:10.394Z,61.41
2019-03-27T19:45:43.807Z,61.14
2019-03-27T19:48:19.856Z,61.16
2019-03-27T19:50:53.394Z,61.01
2019-03-27T19:53:26.848Z,61.30
2019-03-27T19:56:00.320Z,61.11
2019-03-27T19:58:33.767Z,61.12
2019-03-27T20:01:07.632Z,60.78
2019-03-27T20:03:41.230Z,61.02
2019-03-27T20:06:14.651Z,60.92
2019-03-27T20:08:48.245Z,60.93
2019-03-27T20:11:21.672Z,61.10
2019-03-27T20:13:55.254Z,61.01
2019-03-27T20:16:28.919Z,61.15
2019-03-27T20:19:02.432Z,60.82
2019-03-27T20:21:36.142Z,60.77
2019-03-27T20:24:09.676Z,60.75
2019-03-27T20:26:43.920Z,60.84
2019-03-27T20:29:17.613Z,60.82
2019-03-27T20:31:51.111Z,60.92
2019-03-27T20:34:24.680Z,60.98
2019-03-27T20:36:58.107Z,61.21
2019-03-27T20:39:31.864Z,61.07
2019-03-27T20:42:05.372Z,61.03
2019-03-27T20:44:39.064Z,60.99
2019-03-27T20:47:12.617Z,61.09
2019-03-27T20:49:46.291Z,60.96
2019-03-27T20:52:19.930Z,60.97
2019-03-27T20:54:55.252Z,60.74
2019-03-27T20:57:28.891Z,60.55
2019-03-27T21:00:02.515Z,60.49
2019-03-27T21:02:36.268Z,60.46
2019-03-27T21:05:10.508Z,60.55
2019-03-27T21:07:44.198Z,60.67
2019-03-27T21:10:18.236Z,60.73
2019-03-27T21:12:51.874Z,60.75
2019-03-27T21:15:25.394Z,61.03
2019-03-27T21:17:59.211Z,61.12
2019-03-27T21:20:32.904Z,60.94
2019-03-27T21:23:06.605Z,61.04
2019-03-27T21:25:40.140Z,60.78
2019-03-27T21:28:13.780Z,60.56
2019-03-27T21:30:47.520Z,60.53
2019-03-27T21:33:21.300Z,60.30
2019-03-27T21:35:55.020Z,60.58
2019-03-27T21:38:29.035Z,60.57
2019-03-27T21:41:02.765Z,60.46
2019-03-27T21:43:36.132Z,60.48
2019-03-27T21:46:09.549Z,60.63
2019-03-27T21:48:42.996Z,60.45
2019-03-27T21:51:16.506Z,60.61
2019-03-27T21:53:50.807Z,60.71
2019-03-27T21:56:24.477Z,60.60
2019-03-27T21:58:58.042Z,60.62
2019-03-27T22:01:31.503Z,60.37
2019-03-27T22:04:04.980Z,60.38
2019-03-27T22:06:38.809Z,60.35
2019-03-27T22:09:12.343Z,60.43
2019-03-27T22:11:45.768Z,60.66
2019-03-27T22:14:19.244Z,60.70
2019-03-27T22:16:52.804Z,60.64
2019-03-27T22:19:26.266Z,60.56
2019-03-27T22:21:59.695Z,60.58
2019-03-27T22:24:33.276Z,60.62
2019-03-27T22:27:06.710Z,60.45
2019-03-27T22:29:40.227Z,60.29
2019-03-27T22:32:13.761Z,60.28
2019-03-27T22:34:47.260Z,60.31
2019-03-27T22:37:20.654Z,60.27
2019-03-27T22:39:54.027Z,60.20
2019-03-27T22:42:27.474Z,60.41
2019-03-27T22:45:00.984Z,60.40
2019-03-27T22:47:34.481Z,60.34
2019-03-27T22:50:08.827Z,60.42
2019-03-27T22:52:42.440Z,60.72
2019-03-27T22:55:15.963Z,60.57
2019-03-27T22:57:49.408Z,60.42
2019-03-27T23:00:24.495Z,60.62
2019-03-27T23:02:57.931Z,60.51
2019-03-27T23:05:31.457Z,60.52
2019-03-27T23:08:04.980Z,60.33
2019-03-27T23:10:38.598Z,60.51
2019-03-27T23:13:12.108Z,60.79
2019-03-27T23:15:45.692Z,60.64
2019-03-27T23:18:19.108Z,60.68
2019-03-27T23:20:52.606Z,60.64
2019-03-27T23:23:26.020Z,60.54
2019-03-27T23:26:03.143Z,60.25
2019-03-27T23:28:34.649Z,60.64
2019-03-27T23:31:08.138Z,60.66
2019-03-27T23:33:41.633Z,60.73
2019-03-27T23:36:15.148Z,60.62
2019-03-27T23:38:48.624Z,60.68
2019-03-27T23:41:22.049Z,60.48
2019-03-27T23:43:55.402Z,60.38
2019-03-27T23:46:28.928Z,60.31
2019-03-27T23:49:02.455Z,60.59
2019-03-27T23:51:36.037Z,60.43
2019-03-27T23:54:09.535Z,60.26
2019-03-27T23:56:43.063Z,60.26
2019-03-27T23:59:16.664Z,60.20
